sensor_id;sensor_type;location;lat;lon;timestamp;P1;durP1;ratioP1;P2;durP2;ratioP2
28934;SDS011;16044;52.726;-2.108;2024-03-02T10:52:33;21.10;;;7.93;;
28934;SDS011;16044;52.726;-2.108;2024-03-02T10:55:04;19.38;;;7.82;;
28934;SDS011;16044;52.726;-2.108;2024-03-02T10:57:40;26.65;;;8.10;;
28934;SDS011;16044;52.726;-2.108;2024-03-02T11:00:15;15.40;;;6.72;;
28934;SDS011;16044;52.726;-2.108;2024-03-02T11:02:51;15.95;;;6.40;;
28934;SDS011;16044;52.726;-2.108;2024-03-02T11:05:26;15.05;;;6.28;;
28934;SDS011;16044;52.726;-2.108;2024-03-02T11:08:03;16.92;;;6.97;;
28934;SDS011;16044;52.726;-2.108;2024-03-02T11:10:45;16.40;;;7.07;;
28934;SDS011;16044;52.726;-2.108;2024-03-02T11:13:22;21.63;;;6.85;;
28934;SDS011;16044;52.726;-2.108;2024-03-02T11:15:58;24.85;;;6.60;;
28934;SDS011;16044;52.726;-2.108;2024-03-02T11:18:46;22.70;;;6.93;;
28934;SDS011;16044;52.726;-2.108;2024-03-02T11:21:16;17.88;;;6.35;;
28934;SDS011;16044;52.726;-2.108;2024-03-02T11:23:50;25.02;;;5.93;;
28934;SDS011;16044;52.726;-2.108;2024-03-02T11:26:21;15.90;;;4.55;;
28934;SDS011;16044;52.726;-2.108;2024-03-02T11:28:52;14.25;;;4.10;;
28934;SDS011;16044;52.726;-2.108;2024-03-02T11:31:22;9.90;;;3.72;;
28934;SDS011;16044;52.726;-2.108;2024-03-02T11:34:34;12.38;;;4.85;;
28934;SDS011;16044;52.726;-2.108;2024-03-02T11:37:06;14.63;;;4.82;;
28934;SDS011;16044;52.726;-2.108;2024-03-02T11:39:39;11.15;;;3.92;;
28934;SDS011;16044;52.726;-2.108;2024-03-02T11:42:11;13.93;;;4.07;;
28934;SDS011;16044;52.726;-2.108;2024-03-02T11:44:44;35.55;;;10.38;;
28934;SDS011;16044;52.726;-2.108;2024-03-02T11:47:17;23.92;;;7.93;;
28934;SDS011;16044;52.726;-2.108;2024-03-02T11:49:49;15.98;;;4.47;;
28934;SDS011;16044;52.726;-2.108;2024-03-02T11:52:21;5.78;;;2.22;;
28934;SDS011;16044;52.726;-2.108;2024-03-02T11:54:56;9.90;;;2.72;;
28934;SDS011;16044;52.726;-2.108;2024-03-02T11:57:28;4.57;;;2.40;;
28934;SDS011;16044;52.726;-2.108;2024-03-02T11:59:58;3.65;;;1.60;;
28934;SDS011;16044;52.726;-2.108;2024-03-02T12:02:30;1.27;;;0.75;;
28934;SDS011;16044;52.726;-2.108;2024-03-02T12:05:02;3.10;;;0.90;;
28934;SDS011;16044;52.726;-2.108;2024-03-02T12:07:34;1.60;;;0.70;;
28934;SDS011;16044;52.726;-2.108;2024-03-02T12:10:08;2.30;;;1.00;;
28934;SDS011;16044;52.726;-2.108;2024-03-02T12:12:38;1.70;;;1.10;;
28934;SDS011;16044;52.726;-2.108;2024-03-02T12:15:09;1.75;;;0.77;;
28934;SDS011;16044;52.726;-2.108;2024-03-02T12:17:39;1.48;;;0.82;;
28934;SDS011;16044;52.726;-2.108;2024-03-02T12:20:11;1.98;;;1.10;;
28934;SDS011;16044;52.726;-2.108;2024-03-02T12:22:42;3.35;;;0.90;;
28934;SDS011;16044;52.726;-2.108;2024-03-02T12:25:16;1.48;;;0.70;;
28934;SDS011;16044;52.726;-2.108;2024-03-02T12:27:46;1.08;;;0.55;;
28934;SDS011;16044;52.726;-2.108;2024-03-02T12:30:19;1.20;;;0.60;;
28934;SDS011;16044;52.726;-2.108;2024-03-02T12:32:50;0.70;;;0.40;;
28934;SDS011;16044;52.726;-2.108;2024-03-02T12:35:21;1.20;;;0.50;;
28934;SDS011;16044;52.726;-2.108;2024-03-02T12:37:52;0.88;;;0.40;;
28934;SDS011;16044;52.726;-2.108;2024-03-02T12:40:26;0.93;;;0.57;;
28934;SDS011;16044;52.726;-2.108;2024-03-02T12:42:56;1.83;;;0.50;;
28934;SDS011;16044;52.726;-2.108;2024-03-02T12:45:27;2.78;;;0.60;;
28934;SDS011;16044;52.726;-2.108;2024-03-02T12:47:59;1.30;;;0.63;;
28934;SDS011;16044;52.726;-2.108;2024-03-02T12:50:30;1.10;;;0.57;;
28934;SDS011;16044;52.726;-2.108;2024-03-02T12:53:02;1.08;;;0.68;;
28934;SDS011;16044;52.726;-2.108;2024-03-02T12:55:37;1.00;;;0.50;;
28934;SDS011;16044;52.726;-2.108;2024-03-02T12:58:07;1.60;;;0.73;;
28934;SDS011;16044;52.726;-2.108;2024-03-02T13:00:38;2.53;;;1.00;;
28934;SDS011;16044;52.726;-2.108;2024-03-02T13:03:08;2.40;;;1.20;;
28934;SDS011;16044;52.726;-2.108;2024-03-02T13:05:41;1.90;;;1.08;;
28934;SDS011;16044;52.726;-2.108;2024-03-02T13:08:11;2.42;;;1.27;;
28934;SDS011;16044;52.726;-2.108;2024-03-02T13:10:45;1.60;;;1.20;;
28934;SDS011;16044;52.726;-2.108;2024-03-02T13:13:15;1.77;;;1.20;;
28934;SDS011;16044;52.726;-2.108;2024-03-02T13:15:45;1.95;;;1.20;;
28934;SDS011;16044;52.726;-2.108;2024-03-02T13:18:17;2.20;;;1.10;;
28934;SDS011;16044;52.726;-2.108;2024-03-02T13:20:48;1.50;;;1.10;;
28934;SDS011;16044;52.726;-2.108;2024-03-02T13:23:18;2.03;;;1.27;;
28934;SDS011;16044;52.726;-2.108;2024-03-02T13:25:51;5.45;;;1.10;;
28934;SDS011;16044;52.726;-2.108;2024-03-02T13:28:22;1.98;;;1.27;;
28934;SDS011;16044;52.726;-2.108;2024-03-02T13:30:52;1.90;;;1.10;;
28934;SDS011;16044;52.726;-2.108;2024-03-02T13:33:23;1.70;;;1.10;;
28934;SDS011;16044;52.726;-2.108;2024-03-02T13:35:53;4.90;;;2.33;;
28934;SDS011;16044;52.726;-2.108;2024-03-02T13:38:24;2.10;;;1.30;;
28934;SDS011;16044;52.726;-2.108;2024-03-02T13:40:57;1.92;;;0.95;;
28934;SDS011;16044;52.726;-2.108;2024-03-02T13:43:27;2.45;;;1.20;;
28934;SDS011;16044;52.726;-2.108;2024-03-02T13:45:59;3.65;;;1.10;;
28934;SDS011;16044;52.726;-2.108;2024-03-02T13:48:30;1.83;;;1.13;;
28934;SDS011;16044;52.726;-2.108;2024-03-02T13:51:00;1.52;;;0.98;;
28934;SDS011;16044;52.726;-2.108;2024-03-02T13:53:31;2.05;;;1.15;;
28934;SDS011;16044;52.726;-2.108;2024-03-02T13:56:05;1.92;;;1.20;;
28934;SDS011;16044;52.726;-2.108;2024-03-02T13:58:36;2.17;;;1.40;;
28934;SDS011;16044;52.726;-2.108;2024-03-02T14:01:06;2.22;;;1.40;;
28934;SDS011;16044;52.726;-2.108;2024-03-02T14:03:37;1.70;;;1.10;;
28934;SDS011;16044;52.726;-2.108;2024-03-02T14:06:07;2.20;;;1.50;;
28934;SDS011;16044;52.726;-2.108;2024-03-02T14:08:38;2.47;;;1.40;;
28934;SDS011;16044;52.726;-2.108;2024-03-02T14:11:14;5.28;;;2.70;;
28934;SDS011;16044;52.726;-2.108;2024-03-02T14:13:44;4.45;;;1.90;;
28934;SDS011;16044;52.726;-2.108;2024-03-02T14:16:20;2.60;;;1.80;;
28934;SDS011;16044;52.726;-2.108;2024-03-02T14:18:50;1.98;;;1.52;;
28934;SDS011;16044;52.726;-2.108;2024-03-02T14:21:21;2.20;;;1.45;;
28934;SDS011;16044;52.726;-2.108;2024-03-02T14:23:51;1.95;;;1.20;;
28934;SDS011;16044;52.726;-2.108;2024-03-02T14:26:24;2.40;;;1.30;;
28934;SDS011;16044;52.726;-2.108;2024-03-02T14:28:55;2.72;;;1.50;;
28934;SDS011;16044;52.726;-2.108;2024-03-02T14:31:25;4.43;;;2.45;;
28934;SDS011;16044;52.726;-2.108;2024-03-02T14:33:56;3.38;;;1.95;;
28934;SDS011;16044;52.726;-2.108;2024-03-02T14:36:27;1.88;;;1.30;;
28934;SDS011;16044;52.726;-2.108;2024-03-02T14:38:57;5.25;;;2.30;;
28934;SDS011;16044;52.726;-2.108;2024-03-02T14:41:30;3.95;;;1.73;;
28934;SDS011;16044;52.726;-2.108;2024-03-02T14:44:01;1.75;;;1.00;;
28934;SDS011;16044;52.726;-2.108;2024-03-02T14:46:32;1.80;;;1.17;;
28934;SDS011;16044;52.726;-2.108;2024-03-02T14:49:02;4.53;;;2.30;;
28934;SDS011;16044;52.726;-2.108;2024-03-02T14:51:34;4.07;;;2.10;;
28934;SDS011;16044;52.726;-2.108;2024-03-02T14:54:04;8.45;;;3.10;;
28934;SDS011;16044;52.726;-2.108;2024-03-02T14:56:38;2.45;;;1.33;;
28934;SDS011;16044;52.726;-2.108;2024-03-02T14:59:08;10.23;;;3.70;;
28934;SDS011;16044;52.726;-2.108;2024-03-02T15:01:39;13.15;;;3.88;;
28934;SDS011;16044;52.726;-2.108;2024-03-02T15:04:10;9.82;;;3.97;;
28934;SDS011;16044;52.726;-2.108;2024-03-02T15:06:42;5.28;;;2.35;;
28934;SDS011;16044;52.726;-2.108;2024-03-02T15:09:12;3.42;;;1.88;;
28934;SDS011;16044;52.726;-2.108;2024-03-02T15:11:47;3.80;;;1.45;;
28934;SDS011;16044;52.726;-2.108;2024-03-02T15:14:18;2.40;;;1.45;;
28934;SDS011;16044;52.726;-2.108;2024-03-02T15:16:48;5.03;;;2.40;;
28934;SDS011;16044;52.726;-2.108;2024-03-02T15:19:19;4.15;;;1.70;;
28934;SDS011;16044;52.726;-2.108;2024-03-02T15:21:49;2.67;;;1.50;;
28934;SDS011;16044;52.726;-2.108;2024-03-02T15:24:19;4.13;;;2.15;;
28934;SDS011;16044;52.726;-2.108;2024-03-02T15:26:52;4.85;;;2.10;;
28934;SDS011;16044;52.726;-2.108;2024-03-02T15:29:24;4.45;;;1.90;;
28934;SDS011;16044;52.726;-2.108;2024-03-02T15:31:56;3.88;;;1.80;;
28934;SDS011;16044;52.726;-2.108;2024-03-02T15:34:26;3.38;;;1.80;;
28934;SDS011;16044;52.726;-2.108;2024-03-02T15:36:57;9.90;;;3.65;;
28934;SDS011;16044;52.726;-2.108;2024-03-02T15:39:28;4.35;;;2.38;;
28934;SDS011;16044;52.726;-2.108;2024-03-02T15:42:01;5.63;;;2.47;;
28934;SDS011;16044;52.726;-2.108;2024-03-02T15:44:32;6.05;;;2.85;;
28934;SDS011;16044;52.726;-2.108;2024-03-02T15:47:02;3.72;;;2.10;;
28934;SDS011;16044;52.726;-2.108;2024-03-02T15:49:34;3.42;;;2.08;;
28934;SDS011;16044;52.726;-2.108;2024-03-02T15:52:04;4.38;;;1.92;;
28934;SDS011;16044;52.726;-2.108;2024-03-02T15:54:35;4.15;;;2.00;;
28934;SDS011;16044;52.726;-2.108;2024-03-02T15:57:08;6.63;;;2.35;;
28934;SDS011;16044;52.726;-2.108;2024-03-02T15:59:39;4.15;;;1.85;;
28934;SDS011;16044;52.726;-2.108;2024-03-02T16:02:09;3.08;;;1.83;;
28934;SDS011;16044;52.726;-2.108;2024-03-02T16:04:41;3.47;;;1.80;;
28934;SDS011;16044;52.726;-2.108;2024-03-02T16:07:11;3.10;;;1.75;;
28934;SDS011;16044;52.726;-2.108;2024-03-02T16:09:42;3.13;;;1.70;;
28934;SDS011;16044;52.726;-2.108;2024-03-02T16:12:15;3.08;;;1.92;;
28934;SDS011;16044;52.726;-2.108;2024-03-02T16:14:45;2.47;;;2.00;;
28934;SDS011;16044;52.726;-2.108;2024-03-02T16:17:16;3.05;;;2.17;;
28934;SDS011;16044;52.726;-2.108;2024-03-02T16:19:46;2.60;;;1.95;;
28934;SDS011;16044;52.726;-2.108;2024-03-02T16:22:16;3.33;;;1.92;;
28934;SDS011;16044;52.726;-2.108;2024-03-02T16:24:49;3.95;;;2.10;;
28934;SDS011;16044;52.726;-2.108;2024-03-02T16:27:23;2.90;;;2.00;;
28934;SDS011;16044;52.726;-2.108;2024-03-02T16:29:54;3.55;;;2.17;;
28934;SDS011;16044;52.726;-2.108;2024-03-02T16:32:25;3.72;;;2.50;;
28934;SDS011;16044;52.726;-2.108;2024-03-02T16:34:56;3.55;;;2.30;;
28934;SDS011;16044;52.726;-2.108;2024-03-02T16:37:26;4.28;;;2.45;;
28934;SDS011;16044;52.726;-2.108;2024-03-02T16:39:57;5.30;;;2.67;;
28934;SDS011;16044;52.726;-2.108;2024-03-02T16:42:30;6.65;;;3.30;;
28934;SDS011;16044;52.726;-2.108;2024-03-02T16:45:00;6.38;;;3.35;;
28934;SDS011;16044;52.726;-2.108;2024-03-02T16:47:31;8.25;;;3.65;;
28934;SDS011;16044;52.726;-2.108;2024-03-02T16:50:02;4.88;;;2.95;;
28934;SDS011;16044;52.726;-2.108;2024-03-02T16:52:35;9.52;;;4.57;;
28934;SDS011;16044;52.726;-2.108;2024-03-02T16:55:05;8.52;;;4.85;;
28934;SDS011;16044;52.726;-2.108;2024-03-02T16:57:39;7.55;;;4.10;;
28934;SDS011;16044;52.726;-2.108;2024-03-02T17:00:10;9.98;;;4.90;;
28934;SDS011;16044;52.726;-2.108;2024-03-02T17:02:43;13.77;;;6.45;;
28934;SDS011;16044;52.726;-2.108;2024-03-02T17:05:13;18.58;;;7.30;;
28934;SDS011;16044;52.726;-2.108;2024-03-02T17:07:47;12.90;;;5.22;;
28934;SDS011;16044;52.726;-2.108;2024-03-02T17:10:19;10.48;;;4.60;;
28934;SDS011;16044;52.726;-2.108;2024-03-02T17:12:52;14.05;;;6.15;;
28934;SDS011;16044;52.726;-2.108;2024-03-02T17:15:26;15.05;;;6.30;;
28934;SDS011;16044;52.726;-2.108;2024-03-02T17:17:56;5.75;;;3.85;;
28934;SDS011;16044;52.726;-2.108;2024-03-02T17:20:27;7.82;;;4.32;;
28934;SDS011;16044;52.726;-2.108;2024-03-02T17:22:57;6.60;;;3.80;;
28934;SDS011;16044;52.726;-2.108;2024-03-02T17:25:28;5.35;;;3.72;;
28934;SDS011;16044;52.726;-2.108;2024-03-02T17:30:59;4.57;;;2.70;;
28934;SDS011;16044;52.726;-2.108;2024-03-02T17:33:30;3.60;;;2.20;;
28934;SDS011;16044;52.726;-2.108;2024-03-02T17:36:01;3.25;;;2.42;;
28934;SDS011;16044;52.726;-2.108;2024-03-02T17:38:31;4.18;;;2.55;;
28934;SDS011;16044;52.726;-2.108;2024-03-02T17:41:02;4.95;;;2.75;;
28934;SDS011;16044;52.726;-2.108;2024-03-02T17:43:36;5.72;;;2.72;;
28934;SDS011;16044;52.726;-2.108;2024-03-02T17:46:07;4.55;;;2.42;;
28934;SDS011;16044;52.726;-2.108;2024-03-02T17:48:37;3.47;;;2.28;;
28934;SDS011;16044;52.726;-2.108;2024-03-02T17:51:08;5.85;;;2.50;;
28934;SDS011;16044;52.726;-2.108;2024-03-02T17:53:38;5.25;;;2.90;;
28934;SDS011;16044;52.726;-2.108;2024-03-02T17:56:09;5.03;;;2.55;;
28934;SDS011;16044;52.726;-2.108;2024-03-02T17:58:42;4.72;;;2.67;;
28934;SDS011;16044;52.726;-2.108;2024-03-02T18:01:12;4.32;;;2.90;;
28934;SDS011;16044;52.726;-2.108;2024-03-02T18:03:44;3.53;;;2.03;;
28934;SDS011;16044;52.726;-2.108;2024-03-02T18:06:14;4.03;;;2.55;;
28934;SDS011;16044;52.726;-2.108;2024-03-02T18:08:45;3.90;;;2.60;;
28934;SDS011;16044;52.726;-2.108;2024-03-02T18:11:16;4.28;;;2.83;;
28934;SDS011;16044;52.726;-2.108;2024-03-02T18:13:53;5.10;;;3.20;;
28934;SDS011;16044;52.726;-2.108;2024-03-02T18:16:23;4.78;;;3.30;;
28934;SDS011;16044;52.726;-2.108;2024-03-02T18:18:53;5.03;;;3.55;;
28934;SDS011;16044;52.726;-2.108;2024-03-02T18:21:24;5.43;;;3.42;;
28934;SDS011;16044;52.726;-2.108;2024-03-02T18:23:54;4.35;;;3.17;;
28934;SDS011;16044;52.726;-2.108;2024-03-02T18:26:25;5.00;;;3.47;;
28934;SDS011;16044;52.726;-2.108;2024-03-02T18:28:58;7.35;;;4.60;;
28934;SDS011;16044;52.726;-2.108;2024-03-02T18:31:30;5.70;;;4.18;;
28934;SDS011;16044;52.726;-2.108;2024-03-02T18:34:00;8.00;;;5.03;;
28934;SDS011;16044;52.726;-2.108;2024-03-02T18:36:31;5.82;;;4.25;;
28934;SDS011;16044;52.726;-2.108;2024-03-02T18:39:01;6.40;;;4.28;;
28934;SDS011;16044;52.726;-2.108;2024-03-02T18:41:32;6.18;;;4.70;;
28934;SDS011;16044;52.726;-2.108;2024-03-02T18:44:05;9.13;;;5.80;;
28934;SDS011;16044;52.726;-2.108;2024-03-02T18:46:35;7.00;;;4.88;;
28934;SDS011;16044;52.726;-2.108;2024-03-02T18:49:06;8.68;;;5.30;;
28934;SDS011;16044;52.726;-2.108;2024-03-02T18:51:36;7.07;;;5.00;;
28934;SDS011;16044;52.726;-2.108;2024-03-02T18:54:08;6.82;;;4.43;;
28934;SDS011;16044;52.726;-2.108;2024-03-02T18:56:40;7.60;;;5.25;;
28934;SDS011;16044;52.726;-2.108;2024-03-02T18:59:12;7.88;;;5.63;;
28934;SDS011;16044;52.726;-2.108;2024-03-02T19:01:43;8.73;;;6.22;;
28934;SDS011;16044;52.726;-2.108;2024-03-02T19:04:13;12.02;;;8.07;;
28934;SDS011;16044;52.726;-2.108;2024-03-02T19:06:45;10.48;;;6.97;;
28934;SDS011;16044;52.726;-2.108;2024-03-02T19:09:15;11.75;;;8.68;;
28934;SDS011;16044;52.726;-2.108;2024-03-02T19:11:46;9.25;;;7.05;;
28934;SDS011;16044;52.726;-2.108;2024-03-02T19:14:19;12.95;;;9.27;;
28934;SDS011;16044;52.726;-2.108;2024-03-02T19:16:49;15.45;;;13.13;;
28934;SDS011;16044;52.726;-2.108;2024-03-02T19:19:20;13.18;;;9.57;;
28934;SDS011;16044;52.726;-2.108;2024-03-02T19:21:50;12.10;;;9.23;;
28934;SDS011;16044;52.726;-2.108;2024-03-02T19:24:35;15.18;;;10.43;;
28934;SDS011;16044;52.726;-2.108;2024-03-02T19:27:05;11.18;;;9.30;;
28934;SDS011;16044;52.726;-2.108;2024-03-02T19:29:38;12.55;;;9.40;;
28934;SDS011;16044;52.726;-2.108;2024-03-02T19:32:09;13.13;;;9.98;;
28934;SDS011;16044;52.726;-2.108;2024-03-02T19:34:46;15.43;;;10.95;;
28934;SDS011;16044;52.726;-2.108;2024-03-02T19:37:16;11.88;;;9.00;;
28934;SDS011;16044;52.726;-2.108;2024-03-02T19:39:46;14.10;;;10.85;;
28934;SDS011;16044;52.726;-2.108;2024-03-02T19:42:17;17.77;;;12.32;;
28934;SDS011;16044;52.726;-2.108;2024-03-02T19:44:50;19.48;;;13.07;;
28934;SDS011;16044;52.726;-2.108;2024-03-02T19:47:20;23.77;;;15.65;;
28934;SDS011;16044;52.726;-2.108;2024-03-02T19:49:51;21.35;;;13.18;;
28934;SDS011;16044;52.726;-2.108;2024-03-02T19:52:21;17.20;;;12.18;;
28934;SDS011;16044;52.726;-2.108;2024-03-02T19:54:52;18.52;;;12.95;;
28934;SDS011;16044;52.726;-2.108;2024-03-02T19:57:23;20.17;;;13.32;;
28934;SDS011;16044;52.726;-2.108;2024-03-02T19:59:58;19.88;;;13.48;;
28934;SDS011;16044;52.726;-2.108;2024-03-02T20:02:29;18.90;;;13.00;;
28934;SDS011;16044;52.726;-2.108;2024-03-02T20:04:59;23.98;;;16.17;;
28934;SDS011;16044;52.726;-2.108;2024-03-02T20:07:30;18.65;;;12.80;;
28934;SDS011;16044;52.726;-2.108;2024-03-02T20:10:02;19.80;;;13.63;;
28934;SDS011;16044;52.726;-2.108;2024-03-02T20:12:34;21.05;;;14.07;;
28934;SDS011;16044;52.726;-2.108;2024-03-02T20:15:08;20.17;;;13.88;;
28934;SDS011;16044;52.726;-2.108;2024-03-02T20:17:39;21.73;;;13.88;;
28934;SDS011;16044;52.726;-2.108;2024-03-02T20:20:12;23.27;;;14.48;;
28934;SDS011;16044;52.726;-2.108;2024-03-02T20:22:43;23.17;;;14.80;;
28934;SDS011;16044;52.726;-2.108;2024-03-02T20:25:14;23.98;;;16.55;;
28934;SDS011;16044;52.726;-2.108;2024-03-02T20:27:44;27.45;;;17.30;;
28934;SDS011;16044;52.726;-2.108;2024-03-02T20:30:17;26.10;;;16.95;;
28934;SDS011;16044;52.726;-2.108;2024-03-02T20:32:48;23.77;;;16.17;;
28934;SDS011;16044;52.726;-2.108;2024-03-02T20:35:18;25.92;;;17.17;;
28934;SDS011;16044;52.726;-2.108;2024-03-02T20:37:48;30.08;;;16.95;;
28934;SDS011;16044;52.726;-2.108;2024-03-02T20:40:19;27.70;;;18.27;;
28934;SDS011;16044;52.726;-2.108;2024-03-02T20:42:50;30.73;;;20.35;;
28934;SDS011;16044;52.726;-2.108;2024-03-02T20:45:23;29.42;;;19.45;;
28934;SDS011;16044;52.726;-2.108;2024-03-02T20:47:54;28.58;;;18.52;;
28934;SDS011;16044;52.726;-2.108;2024-03-02T20:50:24;28.60;;;19.52;;
28934;SDS011;16044;52.726;-2.108;2024-03-02T20:52:54;30.85;;;20.45;;
28934;SDS011;16044;52.726;-2.108;2024-03-02T20:55:27;33.63;;;21.73;;
28934;SDS011;16044;52.726;-2.108;2024-03-02T20:57:58;49.58;;;28.77;;
28934;SDS011;16044;52.726;-2.108;2024-03-02T21:00:31;63.33;;;34.22;;
28934;SDS011;16044;52.726;-2.108;2024-03-02T21:03:02;39.38;;;24.67;;
28934;SDS011;16044;52.726;-2.108;2024-03-02T21:05:32;33.42;;;21.73;;
28934;SDS011;16044;52.726;-2.108;2024-03-02T21:08:03;32.55;;;21.50;;
28934;SDS011;16044;52.726;-2.108;2024-03-02T21:10:35;28.80;;;19.30;;
28934;SDS011;16044;52.726;-2.108;2024-03-02T21:13:06;29.02;;;19.42;;
28934;SDS011;16044;52.726;-2.108;2024-03-02T21:15:39;28.20;;;18.70;;
28934;SDS011;16044;52.726;-2.108;2024-03-02T21:18:09;28.00;;;17.55;;
28934;SDS011;16044;52.726;-2.108;2024-03-02T21:20:40;27.08;;;17.63;;
28934;SDS011;16044;52.726;-2.108;2024-03-02T21:23:10;28.85;;;18.02;;
28934;SDS011;16044;52.726;-2.108;2024-03-02T21:25:41;23.73;;;16.48;;
28934;SDS011;16044;52.726;-2.108;2024-03-02T21:28:12;21.55;;;15.27;;
28934;SDS011;16044;52.726;-2.108;2024-03-02T21:30:45;23.88;;;16.20;;
28934;SDS011;16044;52.726;-2.108;2024-03-02T21:33:15;24.95;;;16.20;;
28934;SDS011;16044;52.726;-2.108;2024-03-02T21:35:46;25.40;;;16.15;;
28934;SDS011;16044;52.726;-2.108;2024-03-02T21:38:17;21.08;;;14.82;;
28934;SDS011;16044;52.726;-2.108;2024-03-02T21:40:48;22.38;;;15.00;;
28934;SDS011;16044;52.726;-2.108;2024-03-02T21:43:18;22.08;;;14.57;;
28934;SDS011;16044;52.726;-2.108;2024-03-02T21:45:51;21.30;;;14.38;;
28934;SDS011;16044;52.726;-2.108;2024-03-02T21:48:22;22.40;;;14.30;;
28934;SDS011;16044;52.726;-2.108;2024-03-02T21:50:52;19.05;;;13.43;;
28934;SDS011;16044;52.726;-2.108;2024-03-02T21:53:22;19.55;;;14.23;;
28934;SDS011;16044;52.726;-2.108;2024-03-02T21:55:53;21.05;;;15.35;;
28934;SDS011;16044;52.726;-2.108;2024-03-02T21:58:23;22.05;;;15.68;;
28934;SDS011;16044;52.726;-2.108;2024-03-02T22:00:56;21.92;;;15.85;;
28934;SDS011;16044;52.726;-2.108;2024-03-02T22:03:27;22.95;;;14.75;;
28934;SDS011;16044;52.726;-2.108;2024-03-02T22:05:58;19.63;;;14.55;;
28934;SDS011;16044;52.726;-2.108;2024-03-02T22:08:28;18.42;;;13.35;;
28934;SDS011;16044;52.726;-2.108;2024-03-02T22:10:59;18.65;;;12.13;;
28934;SDS011;16044;52.726;-2.108;2024-03-02T22:13:30;18.73;;;12.52;;
28934;SDS011;16044;52.726;-2.108;2024-03-02T22:16:03;16.70;;;11.68;;
28934;SDS011;16044;52.726;-2.108;2024-03-02T22:18:34;14.53;;;11.03;;
28934;SDS011;16044;52.726;-2.108;2024-03-02T22:21:05;15.80;;;10.95;;
28934;SDS011;16044;52.726;-2.108;2024-03-02T22:23:36;12.45;;;9.50;;
28934;SDS011;16044;52.726;-2.108;2024-03-02T22:26:07;14.98;;;10.20;;
28934;SDS011;16044;52.726;-2.108;2024-03-02T22:28:37;17.30;;;10.35;;
28934;SDS011;16044;52.726;-2.108;2024-03-02T22:31:12;14.75;;;9.95;;
28934;SDS011;16044;52.726;-2.108;2024-03-02T22:33:42;12.70;;;8.77;;
28934;SDS011;16044;52.726;-2.108;2024-03-02T22:36:13;15.35;;;10.30;;
28934;SDS011;16044;52.726;-2.108;2024-03-02T22:38:43;18.92;;;10.68;;
28934;SDS011;16044;52.726;-2.108;2024-03-02T22:41:13;16.50;;;9.93;;
28934;SDS011;16044;52.726;-2.108;2024-03-02T22:43:44;15.43;;;9.27;;
28934;SDS011;16044;52.726;-2.108;2024-03-02T22:46:17;12.88;;;8.75;;
28934;SDS011;16044;52.726;-2.108;2024-03-02T22:48:47;13.25;;;7.80;;
28934;SDS011;16044;52.726;-2.108;2024-03-02T22:51:21;13.15;;;8.30;;
28934;SDS011;16044;52.726;-2.108;2024-03-02T22:53:52;14.05;;;9.13;;
28934;SDS011;16044;52.726;-2.108;2024-03-02T22:56:22;15.88;;;9.40;;
28934;SDS011;16044;52.726;-2.108;2024-03-02T22:58:53;16.67;;;10.35;;
28934;SDS011;16044;52.726;-2.108;2024-03-02T23:01:26;18.65;;;10.73;;
28934;SDS011;16044;52.726;-2.108;2024-03-02T23:03:57;15.20;;;9.10;;
28934;SDS011;16044;52.726;-2.108;2024-03-02T23:06:27;21.35;;;11.57;;
28934;SDS011;16044;52.726;-2.108;2024-03-02T23:08:58;17.42;;;10.07;;
28934;SDS011;16044;52.726;-2.108;2024-03-02T23:11:30;16.70;;;10.75;;
28934;SDS011;16044;52.726;-2.108;2024-03-02T23:14:00;16.30;;;9.60;;
28934;SDS011;16044;52.726;-2.108;2024-03-02T23:16:34;16.35;;;10.50;;
28934;SDS011;16044;52.726;-2.108;2024-03-02T23:19:10;17.38;;;10.07;;
28934;SDS011;16044;52.726;-2.108;2024-03-02T23:21:47;16.50;;;10.50;;
28934;SDS011;16044;52.726;-2.108;2024-03-02T23:24:18;15.82;;;10.27;;
28934;SDS011;16044;52.726;-2.108;2024-03-02T23:26:48;15.52;;;9.63;;
28934;SDS011;16044;52.726;-2.108;2024-03-02T23:29:19;15.38;;;10.85;;
28934;SDS011;16044;52.726;-2.108;2024-03-02T23:31:52;16.70;;;10.50;;
28934;SDS011;16044;52.726;-2.108;2024-03-02T23:34:23;18.60;;;10.23;;
28934;SDS011;16044;52.726;-2.108;2024-03-02T23:36:54;16.48;;;11.02;;
28934;SDS011;16044;52.726;-2.108;2024-03-02T23:39:24;19.88;;;11.43;;
28934;SDS011;16044;52.726;-2.108;2024-03-02T23:42:07;15.38;;;10.25;;
28934;SDS011;16044;52.726;-2.108;2024-03-02T23:44:38;16.15;;;10.13;;
28934;SDS011;16044;52.726;-2.108;2024-03-02T23:47:11;18.20;;;10.55;;
28934;SDS011;16044;52.726;-2.108;2024-03-02T23:49:41;16.90;;;10.32;;
28934;SDS011;16044;52.726;-2.108;2024-03-02T23:52:12;17.98;;;10.07;;
28934;SDS011;16044;52.726;-2.108;2024-03-02T23:54:42;14.93;;;9.85;;
28934;SDS011;16044;52.726;-2.108;2024-03-02T23:57:13;13.88;;;10.30;;
28934;SDS011;16044;52.726;-2.108;2024-03-02T23:59:44;17.98;;;10.77;;
